createdAt,value
2023-01-13T00:00:09.296Z,0.52
2023-01-13T00:02:39.609Z,0.60
2023-01-13T00:05:07.726Z,0.50
2023-01-13T00:07:35.364Z,0.50
2023-01-13T00:10:03.190Z,0.47
2023-01-13T00:14:59.754Z,0.50
2023-01-13T00:17:27.321Z,0.50
2023-01-13T00:19:54.943Z,0.50
2023-01-13T00:22:22.550Z,0.60
2023-01-13T00:24:50.162Z,1.00
2023-01-13T00:27:17.839Z,0.90
2023-01-13T00:29:45.468Z,1.38
2023-01-13T00:32:14.408Z,1.48
2023-01-13T00:34:42.057Z,1.60
2023-01-13T00:37:13.105Z,1.33
2023-01-13T00:39:40.824Z,1.58
2023-01-13T00:42:26.627Z,1.35
2023-01-13T00:44:54.333Z,1.10
2023-01-13T00:47:23.634Z,1.30
2023-01-13T00:49:51.242Z,1.30
2023-01-13T00:52:18.843Z,2.58
2023-01-13T00:54:46.467Z,1.00
2023-01-13T00:57:15.466Z,1.40
2023-01-13T00:59:43.185Z,1.00
2023-01-13T01:02:10.915Z,1.30
2023-01-13T01:04:40.017Z,1.00
2023-01-13T01:07:10.310Z,1.30
2023-01-13T01:09:39.606Z,1.40
2023-01-13T01:12:07.320Z,1.42
2023-01-13T01:14:35.027Z,1.40
2023-01-13T01:17:02.645Z,1.40
2023-01-13T01:19:30.280Z,1.13
2023-01-13T01:21:59.253Z,1.42
2023-01-13T01:24:26.862Z,0.80
2023-01-13T01:26:54.476Z,1.75
2023-01-13T01:29:22.087Z,1.90
2023-01-13T01:31:49.818Z,1.23
2023-01-13T01:34:17.457Z,2.08
2023-01-13T01:36:45.074Z,2.10
2023-01-13T01:39:14.042Z,1.50
2023-01-13T01:42:01.645Z,1.63
2023-01-13T01:46:57.071Z,1.90
2023-01-13T01:49:27.347Z,1.50
2023-01-13T01:51:56.597Z,1.92
2023-01-13T01:54:27.502Z,1.90
2023-01-13T01:56:55.901Z,1.90
2023-01-13T01:59:31.808Z,2.22
2023-01-13T02:02:02.829Z,2.28
2023-01-13T02:04:31.888Z,1.42
2023-01-13T02:06:59.829Z,1.80
2023-01-13T02:12:13.959Z,1.67
2023-01-13T02:14:45.105Z,2.28
2023-01-13T02:17:21.041Z,3.08
2023-01-13T02:20:01.760Z,2.03
2023-01-13T02:22:47.419Z,2.63
2023-01-13T02:25:30.839Z,3.03
2023-01-13T02:28:03.965Z,3.00
2023-01-13T02:31:04.636Z,2.55
2023-01-13T02:33:35.445Z,2.75
2023-01-13T02:36:05.599Z,2.75
2023-01-13T02:38:35.664Z,2.47
2023-01-13T02:41:20.216Z,3.35
2023-01-13T02:44:05.836Z,2.33
2023-01-13T02:46:35.903Z,2.97
2023-01-13T02:49:05.500Z,2.33
2023-01-13T02:51:39.763Z,2.30
2023-01-13T02:54:09.228Z,2.30
2023-01-13T02:56:40.500Z,3.22
2023-01-13T02:59:11.874Z,5.13
2023-01-13T03:01:40.963Z,2.67
2023-01-13T03:04:14.406Z,2.33
2023-01-13T03:06:47.028Z,2.85
2023-01-13T03:09:20.188Z,2.53
2023-01-13T03:11:52.537Z,2.50
2023-01-13T03:14:28.243Z,3.10
2023-01-13T03:17:12.008Z,2.55
2023-01-13T03:19:43.940Z,2.47
2023-01-13T03:22:15.966Z,2.95
2023-01-13T03:24:45.659Z,3.42
2023-01-13T03:27:16.043Z,3.05
2023-01-13T03:29:45.470Z,2.20
2023-01-13T03:32:16.988Z,2.88
2023-01-13T03:34:46.777Z,3.28
2023-01-13T03:37:15.591Z,2.50
2023-01-13T03:39:46.139Z,5.22
2023-01-13T03:42:15.737Z,3.67
2023-01-13T03:44:44.230Z,2.90
2023-01-13T03:47:14.419Z,2.38
2023-01-13T03:49:44.944Z,3.00
2023-01-13T03:52:14.195Z,2.15
2023-01-13T03:54:45.888Z,2.20
2023-01-13T03:57:16.247Z,3.03
2023-01-13T03:59:44.619Z,2.75
2023-01-13T04:02:16.956Z,2.30
2023-01-13T04:04:49.633Z,2.83
2023-01-13T04:07:22.048Z,2.25
2023-01-13T04:09:50.979Z,2.50
2023-01-13T04:12:21.491Z,2.35
2023-01-13T04:14:49.173Z,1.55
2023-01-13T04:17:17.094Z,2.30
2023-01-13T04:22:13.078Z,1.67
2023-01-13T04:24:40.548Z,1.88
2023-01-13T04:27:07.977Z,1.90
2023-01-13T04:29:36.541Z,2.17
2023-01-13T04:32:04.001Z,1.83
2023-01-13T04:34:31.364Z,2.00
2023-01-13T04:37:00.253Z,1.63
2023-01-13T04:39:28.934Z,1.75
2023-01-13T04:41:59.383Z,1.75
2023-01-13T04:44:27.000Z,2.22
2023-01-13T04:46:56.297Z,1.70
2023-01-13T04:49:23.689Z,2.03
2023-01-13T04:51:51.063Z,1.95
2023-01-13T04:54:18.531Z,1.63
2023-01-13T04:56:47.313Z,2.47
2023-01-13T04:59:17.700Z,3.15
2023-01-13T05:01:45.295Z,1.90
2023-01-13T05:04:15.400Z,2.85
2023-01-13T05:06:42.773Z,2.80
2023-01-13T05:09:15.580Z,2.47
2023-01-13T05:12:00.408Z,2.95
2023-01-13T05:14:46.778Z,2.80
2023-01-13T05:17:18.174Z,2.80
2023-01-13T05:19:47.691Z,2.28
2023-01-13T05:22:40.850Z,3.13
2023-01-13T05:25:25.042Z,3.55
2023-01-13T05:27:53.408Z,3.72
2023-01-13T05:30:25.665Z,2.22
2023-01-13T05:32:53.105Z,2.97
2023-01-13T05:35:20.505Z,3.67
2023-01-13T05:37:48.019Z,2.90
2023-01-13T05:40:34.583Z,2.03
2023-01-13T05:43:21.038Z,4.05
2023-01-13T05:45:57.915Z,2.40
2023-01-13T05:48:28.003Z,1.90
2023-01-13T05:50:55.586Z,3.25
2023-01-13T05:53:23.503Z,2.63
2023-01-13T05:58:19.061Z,3.15
2023-01-13T06:00:46.598Z,3.97
2023-01-13T06:03:15.991Z,2.75
2023-01-13T06:05:43.763Z,2.33
2023-01-13T06:08:11.141Z,3.17
2023-01-13T06:10:38.605Z,2.35
2023-01-13T06:13:06.421Z,2.17
2023-01-13T06:15:33.874Z,2.88
2023-01-13T06:18:03.195Z,2.00
2023-01-13T06:20:32.071Z,2.25
2023-01-13T06:23:00.104Z,2.85
2023-01-13T06:25:31.304Z,2.03
2023-01-13T06:27:59.808Z,6.45
2023-01-13T06:30:28.983Z,3.80
2023-01-13T06:32:56.851Z,4.00
2023-01-13T06:35:27.999Z,2.60
2023-01-13T06:37:59.068Z,2.63
2023-01-13T06:40:26.720Z,2.40
2023-01-13T06:43:15.952Z,3.00
2023-01-13T06:45:51.224Z,2.63
2023-01-13T06:48:19.447Z,2.15
2023-01-13T06:50:50.208Z,2.75
2023-01-13T06:53:18.917Z,1.83
2023-01-13T06:55:46.462Z,2.22
2023-01-13T06:58:13.868Z,2.40
2023-01-13T07:00:41.655Z,3.05
2023-01-13T07:03:15.567Z,3.42
2023-01-13T07:05:52.269Z,1.92
2023-01-13T07:08:23.184Z,2.53
2023-01-13T07:10:53.442Z,2.58
2023-01-13T07:13:38.509Z,2.40
2023-01-13T07:16:08.855Z,1.80
2023-01-13T07:18:39.726Z,2.95
2023-01-13T07:21:13.189Z,2.38
2023-01-13T07:23:44.289Z,4.05
2023-01-13T07:26:27.405Z,2.58
2023-01-13T07:28:56.579Z,3.55
2023-01-13T07:31:26.120Z,2.55
2023-01-13T07:33:56.578Z,2.35
2023-01-13T07:36:27.010Z,2.83
2023-01-13T07:38:58.233Z,2.67
2023-01-13T07:41:43.432Z,2.40
2023-01-13T07:44:11.172Z,2.55
2023-01-13T07:46:39.337Z,2.55
2023-01-13T07:49:09.261Z,2.58
2023-01-13T07:51:39.903Z,3.17
2023-01-13T07:56:41.867Z,2.30
2023-01-13T07:59:09.228Z,2.22
2023-01-13T08:01:36.885Z,2.33
2023-01-13T08:04:04.538Z,2.08
2023-01-13T08:06:32.131Z,2.25
2023-01-13T08:08:59.933Z,2.17
2023-01-13T08:11:27.407Z,2.05
2023-01-13T08:13:59.841Z,2.58
2023-01-13T08:16:27.372Z,2.63
2023-01-13T08:18:57.775Z,2.85
2023-01-13T08:21:25.514Z,2.30
2023-01-13T08:23:55.642Z,3.33
2023-01-13T08:26:23.012Z,2.50
2023-01-13T08:28:50.376Z,2.78
2023-01-13T08:31:21.970Z,2.15
2023-01-13T08:33:50.242Z,2.85
2023-01-13T08:36:18.481Z,2.35
2023-01-13T08:38:48.243Z,2.17
2023-01-13T08:41:37.190Z,2.80
2023-01-13T08:44:06.797Z,3.22
2023-01-13T08:46:35.781Z,2.72
2023-01-13T08:49:06.676Z,2.80
2023-01-13T08:54:02.019Z,3.13
2023-01-13T08:56:30.072Z,2.83
2023-01-13T08:58:58.367Z,3.33
2023-01-13T09:01:26.223Z,2.38
2023-01-13T09:06:22.560Z,3.70
2023-01-13T09:08:50.076Z,2.83
2023-01-13T09:11:36.764Z,2.78
2023-01-13T09:14:04.232Z,3.83
2023-01-13T09:16:31.724Z,2.95
2023-01-13T09:19:00.070Z,3.08
2023-01-13T09:21:28.870Z,1.55
2023-01-13T09:23:56.225Z,3.22
2023-01-13T09:26:23.878Z,2.90
2023-01-13T09:28:54.038Z,2.15
2023-01-13T09:31:21.843Z,2.00
2023-01-13T09:34:07.108Z,3.42
2023-01-13T09:36:38.684Z,2.80
2023-01-13T09:39:11.388Z,2.45
2023-01-13T09:41:59.863Z,2.45
2023-01-13T09:44:29.668Z,2.85
2023-01-13T09:46:58.671Z,3.35
2023-01-13T09:49:35.578Z,2.88
2023-01-13T09:52:07.976Z,3.03
2023-01-13T09:54:39.389Z,3.50
2023-01-13T09:57:09.648Z,2.72
2023-01-13T09:59:41.509Z,3.03
2023-01-13T10:02:17.919Z,3.47
2023-01-13T10:04:45.313Z,3.53
2023-01-13T10:07:15.208Z,3.10
2023-01-13T10:09:47.175Z,3.15
2023-01-13T10:12:34.771Z,3.47
2023-01-13T10:15:02.163Z,2.92
2023-01-13T10:17:31.424Z,3.65
2023-01-13T10:20:03.964Z,3.65
2023-01-13T10:22:44.001Z,3.38
2023-01-13T10:25:20.511Z,3.75
2023-01-13T10:27:52.825Z,3.55
2023-01-13T10:30:21.801Z,4.25
2023-01-13T10:32:52.147Z,2.72
2023-01-13T10:35:19.679Z,3.75
2023-01-13T10:37:57.004Z,4.47
2023-01-13T10:40:25.697Z,3.03
2023-01-13T10:43:06.559Z,3.50
2023-01-13T10:45:34.092Z,4.03
2023-01-13T10:48:07.092Z,3.72
2023-01-13T10:50:38.680Z,4.18
2023-01-13T10:53:18.186Z,4.57
2023-01-13T10:55:58.354Z,3.45
2023-01-13T10:58:26.010Z,3.50
2023-01-13T11:01:00.060Z,3.90
2023-01-13T11:03:40.644Z,3.10
2023-01-13T11:06:08.521Z,3.85
2023-01-13T11:08:46.505Z,2.97
2023-01-13T11:11:26.133Z,3.83
2023-01-13T11:14:14.351Z,4.53
2023-01-13T11:16:52.963Z,4.10
2023-01-13T11:19:23.492Z,3.53
2023-01-13T11:21:55.406Z,3.35
2023-01-13T11:24:28.669Z,4.50
2023-01-13T11:27:00.733Z,3.13
2023-01-13T11:29:30.766Z,3.53
2023-01-13T11:32:04.221Z,3.50
2023-01-13T11:34:34.791Z,4.40
2023-01-13T11:37:03.105Z,4.45
2023-01-13T11:39:43.064Z,3.67
2023-01-13T11:42:24.087Z,4.05
2023-01-13T11:45:02.709Z,4.00
2023-01-13T11:47:32.514Z,3.78
2023-01-13T11:50:01.773Z,2.97
2023-01-13T11:52:33.691Z,4.13
2023-01-13T11:55:16.430Z,3.13
2023-01-13T11:57:52.234Z,2.33
2023-01-13T12:00:47.514Z,4.00
2023-01-13T12:03:28.291Z,3.88
2023-01-13T12:08:36.901Z,4.28
2023-01-13T12:11:13.710Z,3.88
2023-01-13T12:13:45.097Z,4.90
2023-01-13T12:16:16.267Z,3.67
2023-01-13T12:18:59.322Z,3.10
2023-01-13T12:21:28.115Z,4.97
2023-01-13T12:24:00.466Z,4.05
2023-01-13T12:26:32.206Z,3.95
2023-01-13T12:29:02.180Z,3.28
2023-01-13T12:31:30.287Z,4.93
2023-01-13T12:34:04.854Z,2.88
2023-01-13T12:36:37.130Z,1.92
2023-01-13T12:39:10.579Z,4.95
2023-01-13T12:42:03.174Z,3.38
2023-01-13T12:44:30.837Z,5.45
2023-01-13T12:46:58.727Z,2.55
2023-01-13T12:52:07.303Z,3.10
2023-01-13T12:54:49.857Z,2.55
2023-01-13T12:57:24.578Z,3.53
2023-01-13T13:00:07.057Z,4.72
2023-01-13T13:02:35.938Z,2.55
2023-01-13T13:05:18.500Z,4.15
2023-01-13T13:07:54.183Z,4.28
2023-01-13T13:10:28.560Z,4.70
2023-01-13T13:13:18.515Z,5.53
2023-01-13T13:15:46.848Z,4.80
2023-01-13T13:18:30.358Z,4.28
2023-01-13T13:21:02.921Z,3.83
2023-01-13T13:23:48.342Z,3.83
2023-01-13T13:26:20.471Z,3.13
2023-01-13T13:28:58.800Z,4.57
2023-01-13T13:31:34.473Z,3.95
2023-01-13T13:34:27.327Z,3.85
2023-01-13T13:37:02.785Z,3.03
2023-01-13T13:39:50.545Z,3.90
2023-01-13T13:42:40.112Z,3.55
2023-01-13T13:45:33.924Z,4.03
2023-01-13T13:48:03.168Z,4.13
2023-01-13T13:50:35.014Z,2.75
2023-01-13T13:53:05.296Z,3.67
2023-01-13T13:55:33.073Z,4.22
2023-01-13T13:58:01.520Z,3.70
2023-01-13T14:00:32.326Z,3.17
2023-01-13T14:03:01.654Z,3.85
2023-01-13T14:05:29.870Z,4.22
2023-01-13T14:08:01.577Z,4.53
2023-01-13T14:10:33.635Z,3.38
2023-01-13T14:13:02.571Z,3.97
2023-01-13T14:15:33.344Z,3.05
2023-01-13T14:18:02.545Z,3.92
2023-01-13T14:20:30.501Z,2.92
2023-01-13T14:25:29.987Z,3.95
2023-01-13T14:27:58.236Z,3.08
2023-01-13T14:30:33.797Z,4.53
2023-01-13T14:33:07.666Z,3.80
2023-01-13T14:35:37.920Z,3.45
2023-01-13T14:38:05.288Z,4.25
2023-01-13T14:40:45.520Z,4.70
2023-01-13T14:43:14.757Z,4.30
2023-01-13T14:45:44.545Z,3.67
2023-01-13T14:48:17.469Z,5.22
2023-01-13T14:50:49.519Z,3.90
2023-01-13T14:53:34.452Z,4.10
2023-01-13T14:56:22.031Z,4.03
2023-01-13T14:58:58.843Z,4.72
2023-01-13T15:01:27.412Z,4.63
2023-01-13T15:03:56.574Z,4.85
2023-01-13T15:06:25.215Z,2.25
2023-01-13T15:08:52.798Z,4.28
2023-01-13T15:11:23.866Z,4.32
2023-01-13T15:13:56.792Z,4.68
2023-01-13T15:16:29.716Z,4.47
2023-01-13T15:19:00.702Z,5.40
2023-01-13T15:21:28.087Z,3.92
2023-01-13T15:23:55.634Z,4.80
2023-01-13T15:26:25.178Z,4.72
2023-01-13T15:28:53.177Z,4.28
2023-01-13T15:31:21.135Z,4.20
2023-01-13T15:36:34.050Z,3.88
2023-01-13T15:39:03.064Z,4.60
2023-01-13T15:41:48.151Z,5.65
2023-01-13T15:44:37.206Z,4.85
2023-01-13T15:47:08.698Z,4.32
2023-01-13T15:49:37.867Z,6.03
2023-01-13T15:52:08.287Z,5.97
2023-01-13T15:54:37.154Z,5.70
2023-01-13T15:57:05.967Z,5.38
2023-01-13T15:59:33.865Z,5.50
2023-01-13T16:02:08.276Z,5.40
2023-01-13T16:04:37.570Z,6.68
2023-01-13T16:07:12.718Z,5.63
2023-01-13T16:09:41.500Z,5.82
2023-01-13T16:12:12.090Z,4.55
2023-01-13T16:14:39.618Z,5.32
2023-01-13T16:17:12.752Z,4.50
2023-01-13T16:19:43.388Z,3.92
2023-01-13T16:22:13.073Z,4.28
2023-01-13T16:24:45.936Z,5.07
2023-01-13T16:27:15.108Z,4.18
2023-01-13T16:29:42.636Z,4.72
2023-01-13T16:32:14.584Z,3.45
2023-01-13T16:34:42.249Z,3.47
2023-01-13T16:37:14.367Z,3.80
2023-01-13T16:39:47.616Z,3.28
2023-01-13T16:42:18.264Z,4.05
2023-01-13T16:44:46.657Z,3.67
2023-01-13T16:47:15.159Z,3.78
2023-01-13T16:49:42.763Z,3.75
2023-01-13T16:52:16.641Z,3.28
2023-01-13T16:54:45.359Z,4.70
2023-01-13T16:57:13.594Z,3.85
2023-01-13T16:59:41.316Z,4.40
2023-01-13T17:02:18.821Z,4.50
2023-01-13T17:04:47.403Z,3.20
2023-01-13T17:07:16.505Z,3.97
2023-01-13T17:09:46.455Z,2.80
2023-01-13T17:12:13.883Z,4.15
2023-01-13T17:14:43.170Z,3.90
2023-01-13T17:17:15.047Z,4.43
2023-01-13T17:19:42.720Z,3.88
2023-01-13T17:22:10.095Z,3.78
2023-01-13T17:24:37.530Z,4.70
2023-01-13T17:27:09.030Z,4.13
2023-01-13T17:29:36.426Z,4.03
2023-01-13T17:32:03.852Z,3.70
2023-01-13T17:34:31.406Z,4.03
2023-01-13T17:36:58.793Z,3.67
2023-01-13T17:39:26.805Z,5.43
2023-01-13T17:41:55.833Z,3.13
2023-01-13T17:44:25.971Z,4.28
2023-01-13T17:46:55.696Z,3.08
2023-01-13T17:49:25.326Z,3.22
2023-01-13T17:51:52.937Z,4.28
2023-01-13T17:54:21.232Z,4.03
2023-01-13T17:56:48.608Z,3.08
2023-01-13T17:59:19.641Z,3.97
2023-01-13T18:01:49.934Z,4.18
2023-01-13T18:04:18.238Z,3.92
2023-01-13T18:06:48.930Z,4.55
2023-01-13T18:09:16.940Z,4.00
2023-01-13T18:14:13.563Z,3.88
2023-01-13T18:16:41.209Z,3.83
2023-01-13T18:19:30.101Z,2.92
2023-01-13T18:22:15.034Z,3.03
2023-01-13T18:25:00.194Z,3.47
2023-01-13T18:27:29.069Z,3.78
2023-01-13T18:29:57.308Z,4.80
2023-01-13T18:32:26.271Z,4.75
2023-01-13T18:35:05.048Z,4.75
2023-01-13T18:37:35.519Z,5.28
2023-01-13T18:40:02.899Z,4.38
2023-01-13T18:42:47.904Z,4.22
2023-01-13T18:45:15.364Z,3.97
2023-01-13T18:47:44.003Z,4.05
2023-01-13T18:50:13.801Z,4.30
2023-01-13T18:52:41.466Z,3.83
2023-01-13T18:55:09.189Z,4.57
2023-01-13T18:57:39.766Z,3.40
2023-01-13T19:00:13.517Z,4.00
2023-01-13T19:02:41.422Z,4.10
2023-01-13T19:05:11.672Z,4.10
2023-01-13T19:07:40.498Z,3.92
2023-01-13T19:10:12.976Z,4.75
2023-01-13T19:12:40.613Z,4.95
2023-01-13T19:15:08.771Z,4.15
2023-01-13T19:17:36.793Z,6.07
2023-01-13T19:22:33.575Z,5.07
2023-01-13T19:25:02.922Z,3.95
2023-01-13T19:27:30.678Z,4.28
2023-01-13T19:30:00.729Z,3.90
2023-01-13T19:32:30.552Z,5.30
2023-01-13T19:34:59.526Z,4.57
2023-01-13T19:37:30.447Z,3.75
2023-01-13T19:40:00.309Z,4.60
2023-01-13T19:42:46.800Z,4.10
2023-01-13T19:45:31.674Z,4.32
2023-01-13T19:48:01.555Z,4.32
2023-01-13T19:50:29.015Z,4.97
2023-01-13T19:52:56.402Z,5.50
2023-01-13T19:55:24.155Z,3.90
2023-01-13T19:57:52.879Z,5.78
2023-01-13T20:00:21.991Z,4.25
2023-01-13T20:02:53.292Z,6.28
2023-01-13T20:05:22.531Z,5.03
2023-01-13T20:07:50.531Z,5.82
2023-01-13T20:12:45.187Z,5.78
2023-01-13T20:15:14.107Z,5.30
2023-01-13T20:17:41.771Z,5.70
2023-01-13T20:20:09.864Z,5.63
2023-01-13T20:22:38.131Z,4.80
2023-01-13T20:25:09.180Z,4.90
2023-01-13T20:27:36.752Z,4.28
2023-01-13T20:30:05.067Z,4.07
2023-01-13T20:32:33.787Z,4.82
2023-01-13T20:35:09.977Z,5.93
2023-01-13T20:37:37.763Z,5.22
2023-01-13T20:40:06.039Z,4.32
2023-01-13T20:42:39.757Z,4.15
2023-01-13T20:45:10.381Z,3.47
2023-01-13T20:47:39.152Z,3.58
2023-01-13T20:50:06.937Z,3.80
2023-01-13T20:52:34.460Z,4.72
2023-01-13T20:55:01.853Z,4.20
2023-01-13T20:57:29.363Z,4.68
2023-01-13T20:59:56.773Z,3.88
2023-01-13T21:02:25.239Z,3.78
2023-01-13T21:04:55.231Z,2.65
2023-01-13T21:07:22.931Z,4.22
2023-01-13T21:09:50.667Z,3.38
2023-01-13T21:12:36.041Z,4.13
2023-01-13T21:15:19.795Z,3.88
2023-01-13T21:18:05.313Z,4.38
2023-01-13T21:20:35.142Z,4.22
2023-01-13T21:23:03.055Z,3.35
2023-01-13T21:28:00.351Z,3.75
2023-01-13T21:30:27.760Z,3.63
2023-01-13T21:32:55.204Z,3.75
2023-01-13T21:35:22.647Z,4.38
2023-01-13T21:37:51.808Z,4.35
2023-01-13T21:40:19.457Z,3.88
2023-01-13T21:43:04.537Z,4.03
2023-01-13T21:45:52.845Z,5.00
2023-01-13T21:48:20.288Z,4.50
2023-01-13T21:50:47.701Z,4.38
2023-01-13T21:53:16.523Z,5.07
2023-01-13T21:55:44.031Z,3.58
2023-01-13T21:58:12.416Z,3.67
2023-01-13T22:00:40.601Z,5.35
2023-01-13T22:03:08.850Z,4.38
2023-01-13T22:05:36.568Z,4.00
2023-01-13T22:08:04.025Z,4.53
2023-01-13T22:13:35.252Z,8.35
2023-01-13T22:16:04.309Z,4.32
2023-01-13T22:18:31.775Z,5.20
2023-01-13T22:21:05.231Z,4.38
2023-01-13T22:23:32.715Z,4.35
2023-01-13T22:26:04.417Z,3.97
2023-01-13T22:28:40.416Z,4.03
2023-01-13T22:31:08.411Z,4.10
2023-01-13T22:36:03.217Z,4.97
2023-01-13T22:38:32.875Z,5.60
2023-01-13T22:41:01.939Z,4.22
2023-01-13T22:43:33.671Z,4.15
2023-01-13T22:46:02.069Z,6.57
2023-01-13T22:48:29.831Z,5.80
2023-01-13T22:50:57.411Z,4.30
2023-01-13T22:53:24.925Z,4.65
2023-01-13T22:55:56.221Z,5.00
2023-01-13T22:58:26.741Z,6.80
2023-01-13T23:01:07.647Z,5.45
2023-01-13T23:03:37.455Z,6.35
2023-01-13T23:06:05.140Z,3.75
2023-01-13T23:08:33.473Z,4.72
2023-01-13T23:11:01.554Z,4.82
2023-01-13T23:13:29.026Z,5.60
2023-01-13T23:16:01.794Z,5.15
2023-01-13T23:18:29.220Z,5.53
2023-01-13T23:20:58.660Z,5.43
2023-01-13T23:23:26.120Z,4.97
2023-01-13T23:25:55.298Z,5.18
2023-01-13T23:28:23.185Z,4.85
2023-01-13T23:30:51.490Z,4.88
2023-01-13T23:33:20.391Z,5.35
2023-01-13T23:35:56.887Z,4.72
2023-01-13T23:38:24.284Z,4.63
2023-01-13T23:40:51.875Z,5.68
2023-01-13T23:43:19.408Z,5.25
2023-01-13T23:45:47.125Z,5.05
2023-01-13T23:48:14.553Z,5.70
2023-01-13T23:50:46.011Z,5.45
2023-01-13T23:53:13.477Z,5.57
2023-01-13T23:55:40.860Z,5.32
2023-01-13T23:58:08.208Z,6.63
